createdAt,value
2022-12-20T00:00:31.380Z,102752.56
2022-12-20T00:03:34.053Z,102739.56
2022-12-20T00:06:36.987Z,102738.94
2022-12-20T00:09:39.904Z,102738.94
2022-12-20T00:12:42.524Z,102733.84
2022-12-20T00:15:46.498Z,102733.97
2022-12-20T00:18:52.129Z,102732.31
2022-12-20T00:21:54.803Z,102732.88
2022-12-20T00:24:57.413Z,102730.53
2022-12-20T00:28:01.178Z,102733.75
2022-12-20T00:31:06.430Z,102733.50
2022-12-20T00:34:09.853Z,102718.63
2022-12-20T00:37:13.358Z,102713.47
2022-12-20T00:40:16.515Z,102716.03
2022-12-20T00:43:19.091Z,102720.13
2022-12-20T00:46:25.186Z,102717.81
2022-12-20T00:49:28.262Z,102714.78
2022-12-20T00:52:30.858Z,102725.78
2022-12-20T00:55:33.466Z,102730.25
2022-12-20T00:58:38.385Z,102734.63
2022-12-20T01:01:42.598Z,102721.91
2022-12-20T01:04:45.430Z,102726.06
2022-12-20T01:07:48.046Z,102725.63
2022-12-20T01:10:59.243Z,102715.56
2022-12-20T01:14:05.587Z,102710.72
2022-12-20T01:17:10.686Z,102710.63
2022-12-20T01:20:14.038Z,102709.75
2022-12-20T01:23:16.759Z,102709.31
2022-12-20T01:26:22.349Z,102715.41
2022-12-20T01:29:25.656Z,102697.72
2022-12-20T01:32:29.704Z,102687.03
2022-12-20T01:35:32.356Z,102686.38
2022-12-20T01:38:35.790Z,102675.94
2022-12-20T01:41:38.766Z,102662.53
2022-12-20T01:44:59.114Z,102668.38
2022-12-20T01:48:03.464Z,102653.97
2022-12-20T01:51:07.238Z,102653.69
2022-12-20T01:54:15.381Z,102647.03
2022-12-20T01:57:22.671Z,102646.31
2022-12-20T02:00:25.960Z,102642.66
2022-12-20T02:03:31.053Z,102644.16
2022-12-20T02:06:33.942Z,102655.75
2022-12-20T02:09:38.383Z,102655.94
2022-12-20T02:12:42.476Z,102635.03
2022-12-20T02:15:54.103Z,102629.41
2022-12-20T02:19:04.254Z,102622.41
2022-12-20T02:22:18.990Z,102609.69
2022-12-20T02:25:42.703Z,102612.38
2022-12-20T02:29:10.789Z,102594.88
2022-12-20T02:32:20.147Z,102591.66
2022-12-20T02:35:26.589Z,102591.44
2022-12-20T02:38:32.322Z,102594.44
2022-12-20T02:41:41.178Z,102600.38
2022-12-20T02:45:06.822Z,102603.25
2022-12-20T02:48:11.673Z,102604.44
2022-12-20T02:51:17.721Z,102611.84
2022-12-20T02:54:21.642Z,102605.19
2022-12-20T02:57:29.848Z,102609.00
2022-12-20T03:00:42.676Z,102617.19
2022-12-20T03:03:47.367Z,102614.06
2022-12-20T03:06:58.855Z,102610.16
2022-12-20T03:10:01.551Z,102604.09
2022-12-20T03:13:04.868Z,102604.81
2022-12-20T03:16:10.805Z,102595.72
2022-12-20T03:19:15.453Z,102594.03
2022-12-20T03:22:18.124Z,102584.69
2022-12-20T03:25:20.898Z,102582.75
2022-12-20T03:28:24.106Z,102591.38
2022-12-20T03:31:27.292Z,102578.31
2022-12-20T03:34:32.290Z,102587.16
2022-12-20T03:37:36.352Z,102584.19
2022-12-20T03:40:40.797Z,102571.63
2022-12-20T03:43:45.118Z,102566.28
2022-12-20T03:46:47.866Z,102572.06
2022-12-20T03:49:52.323Z,102581.63
2022-12-20T03:52:55.223Z,102576.94
2022-12-20T03:55:58.010Z,102571.00
2022-12-20T03:59:01.121Z,102576.41
2022-12-20T04:02:04.171Z,102571.00
2022-12-20T04:05:09.175Z,102572.91
2022-12-20T04:08:13.405Z,102572.38
2022-12-20T04:11:16.418Z,102556.81
2022-12-20T04:14:32.984Z,102554.78
2022-12-20T04:17:35.937Z,102563.56
2022-12-20T04:20:42.568Z,102564.88
2022-12-20T04:23:54.993Z,102558.22
2022-12-20T04:26:58.056Z,102556.91
2022-12-20T04:30:00.720Z,102552.13
2022-12-20T04:33:04.320Z,102559.41
2022-12-20T04:36:08.486Z,102561.81
2022-12-20T04:39:11.145Z,102551.34
2022-12-20T04:42:24.414Z,102561.66
2022-12-20T04:45:28.600Z,102549.94
2022-12-20T04:48:56.348Z,102551.13
2022-12-20T04:52:16.070Z,102542.06
2022-12-20T04:55:18.825Z,102538.00
2022-12-20T04:58:21.573Z,102552.75
2022-12-20T05:01:24.845Z,102540.06
2022-12-20T05:04:35.097Z,102541.72
2022-12-20T05:07:41.232Z,102548.72
2022-12-20T05:10:44.635Z,102539.09
2022-12-20T05:13:48.812Z,102545.31
2022-12-20T05:16:54.111Z,102542.63
2022-12-20T05:19:56.764Z,102539.38
2022-12-20T05:23:19.504Z,102545.72
2022-12-20T05:26:26.752Z,102541.13
2022-12-20T05:29:30.717Z,102539.78
2022-12-20T05:32:33.553Z,102534.84
2022-12-20T05:35:36.331Z,102536.94
2022-12-20T05:38:45.013Z,102543.22
2022-12-20T05:41:53.719Z,102540.09
2022-12-20T05:44:59.234Z,102531.06
2022-12-20T05:48:02.607Z,102537.47
2022-12-20T05:51:06.467Z,102539.59
2022-12-20T05:54:18.230Z,102541.09
2022-12-20T05:57:28.767Z,102543.53
2022-12-20T06:00:33.632Z,102537.31
2022-12-20T06:03:37.612Z,102535.63
2022-12-20T06:06:43.478Z,102535.34
2022-12-20T06:09:48.350Z,102532.75
2022-12-20T06:12:53.619Z,102524.94
2022-12-20T06:15:56.998Z,102535.13
2022-12-20T06:19:00.679Z,102528.16
2022-12-20T06:22:03.652Z,102521.69
2022-12-20T06:25:19.510Z,102509.16
2022-12-20T06:28:22.636Z,102511.91
2022-12-20T06:31:26.077Z,102524.75
2022-12-20T06:34:30.403Z,102526.06
2022-12-20T06:37:33.360Z,102521.22
2022-12-20T06:40:37.413Z,102509.63
2022-12-20T06:43:40.325Z,102506.88
2022-12-20T06:46:45.929Z,102516.25
2022-12-20T06:49:48.632Z,102521.25
2022-12-20T06:52:58.021Z,102519.50
2022-12-20T06:56:20.582Z,102522.19
2022-12-20T06:59:24.111Z,102519.00
2022-12-20T07:02:28.891Z,102527.56
2022-12-20T07:05:42.302Z,102514.47
2022-12-20T07:08:44.946Z,102518.22
2022-12-20T07:11:49.243Z,102504.59
2022-12-20T07:14:51.938Z,102509.25
2022-12-20T07:17:55.384Z,102507.06
2022-12-20T07:21:00.637Z,102506.28
2022-12-20T07:24:03.324Z,102511.03
2022-12-20T07:27:10.335Z,102498.56
2022-12-20T07:30:13.749Z,102483.59
2022-12-20T07:33:18.105Z,102485.44
2022-12-20T07:36:21.085Z,102477.16
2022-12-20T07:39:23.787Z,102484.91
2022-12-20T07:42:35.739Z,102482.19
2022-12-20T07:45:41.681Z,102475.41
2022-12-20T07:48:47.411Z,102474.03
2022-12-20T07:51:54.190Z,102478.88
2022-12-20T07:55:01.537Z,102484.03
2022-12-20T07:58:09.679Z,102473.50
2022-12-20T08:01:14.611Z,102451.00
2022-12-20T08:04:21.608Z,102416.88
2022-12-20T08:07:24.726Z,102443.78
2022-12-20T08:10:28.976Z,102419.09
2022-12-20T08:13:34.160Z,102417.47
2022-12-20T08:16:37.264Z,102431.84
2022-12-20T08:19:39.963Z,102435.00
2022-12-20T08:22:43.336Z,102441.97
2022-12-20T08:25:46.077Z,102455.88
2022-12-20T08:28:50.242Z,102455.41
2022-12-20T08:31:53.053Z,102470.50
2022-12-20T08:34:56.897Z,102460.59
2022-12-20T08:38:00.524Z,102463.50
2022-12-20T08:41:05.329Z,102448.84
2022-12-20T08:44:10.803Z,102464.03
2022-12-20T08:47:13.667Z,102472.53
2022-12-20T08:50:16.490Z,102469.28
2022-12-20T08:53:19.643Z,102465.47
2022-12-20T08:56:24.810Z,102451.00
2022-12-20T08:59:31.603Z,102461.66
2022-12-20T09:02:35.212Z,102456.69
2022-12-20T09:05:44.276Z,102447.03
2022-12-20T09:08:48.794Z,102438.13
2022-12-20T09:11:54.212Z,102430.69
2022-12-20T09:14:59.681Z,102425.91
2022-12-20T09:18:03.523Z,102410.09
2022-12-20T09:21:09.961Z,102415.06
2022-12-20T09:24:12.945Z,102422.84
2022-12-20T09:27:15.740Z,102410.63
2022-12-20T09:30:20.108Z,102412.16
2022-12-20T09:33:25.188Z,102423.38
2022-12-20T09:36:30.104Z,102425.50
2022-12-20T09:39:32.819Z,102431.38
2022-12-20T09:42:36.669Z,102442.25
2022-12-20T09:45:41.763Z,102446.88
2022-12-20T09:48:46.806Z,102432.53
2022-12-20T09:52:03.837Z,102411.97
2022-12-20T09:55:20.541Z,102408.50
2022-12-20T09:58:51.068Z,102395.13
2022-12-20T10:01:55.900Z,102384.28
2022-12-20T10:04:59.485Z,102384.88
2022-12-20T10:08:12.633Z,102371.22
2022-12-20T10:11:40.661Z,102356.91
2022-12-20T10:15:16.063Z,102357.31
2022-12-20T10:18:38.300Z,102353.16
2022-12-20T10:21:50.306Z,102328.97
2022-12-20T10:25:12.200Z,102326.22
2022-12-20T10:28:18.126Z,102322.38
2022-12-20T10:31:23.902Z,102324.66
2022-12-20T10:34:37.318Z,102327.00
2022-12-20T10:38:07.071Z,102325.53
2022-12-20T10:41:21.787Z,102327.97
2022-12-20T10:44:27.502Z,102319.81
2022-12-20T10:47:37.997Z,102315.84
2022-12-20T10:50:42.890Z,102304.22
2022-12-20T10:53:59.871Z,102277.97
2022-12-20T10:57:15.022Z,102267.28
2022-12-20T11:00:29.731Z,102264.78
2022-12-20T11:03:32.825Z,102264.75
2022-12-20T11:06:45.647Z,102249.47
2022-12-20T11:09:54.781Z,102262.53
2022-12-20T11:13:01.026Z,102251.63
2022-12-20T11:16:04.286Z,102242.56
2022-12-20T11:19:27.607Z,102251.63
2022-12-20T11:22:41.626Z,102253.16
2022-12-20T11:25:58.975Z,102239.06
2022-12-20T11:29:21.244Z,102248.84
2022-12-20T11:32:40.590Z,102236.28
2022-12-20T11:35:53.564Z,102228.69
2022-12-20T11:39:10.880Z,102226.13
2022-12-20T11:42:23.187Z,102213.63
2022-12-20T11:45:31.877Z,102215.28
2022-12-20T11:48:49.272Z,102217.34
2022-12-20T11:52:03.231Z,102206.81
2022-12-20T11:55:20.740Z,102197.97
2022-12-20T11:58:27.299Z,102210.66
2022-12-20T12:01:36.029Z,102198.41
2022-12-20T12:04:44.827Z,102176.66
2022-12-20T12:07:53.899Z,102178.59
2022-12-20T12:11:02.855Z,102175.38
2022-12-20T12:14:18.175Z,102163.13
2022-12-20T12:17:27.626Z,102163.22
2022-12-20T12:20:47.194Z,102160.59
2022-12-20T12:23:57.931Z,102160.09
2022-12-20T12:27:02.799Z,102159.41
2022-12-20T12:30:07.286Z,102156.75
2022-12-20T12:33:22.095Z,102153.31
2022-12-20T12:36:46.423Z,102165.94
2022-12-20T12:40:16.183Z,102157.41
2022-12-20T12:43:49.968Z,102156.47
2022-12-20T12:46:59.782Z,102152.88
2022-12-20T12:50:03.984Z,102142.38
2022-12-20T12:53:13.951Z,102132.34
2022-12-20T12:56:47.675Z,102127.84
2022-12-20T12:59:52.005Z,102142.47
2022-12-20T13:02:54.968Z,102146.56
2022-12-20T13:05:58.404Z,102128.03
2022-12-20T13:09:22.488Z,102131.81
2022-12-20T13:12:56.669Z,102132.66
2022-12-20T13:17:02.126Z,102140.31
2022-12-20T13:19:52.296Z,102130.34
2022-12-20T13:23:17.582Z,102128.84
2022-12-20T13:26:43.601Z,102139.72
2022-12-20T13:29:58.893Z,102138.88
2022-12-20T13:33:40.062Z,102142.97
2022-12-20T13:36:43.581Z,102149.66
2022-12-20T13:39:48.075Z,102141.19
2022-12-20T13:42:55.104Z,102138.09
2022-12-20T13:46:13.534Z,102132.59
2022-12-20T13:49:24.369Z,102141.19
2022-12-20T13:52:30.383Z,102142.19
2022-12-20T13:55:36.396Z,102156.84
2022-12-20T13:58:44.174Z,102146.97
2022-12-20T14:01:49.463Z,102144.72
2022-12-20T14:04:59.353Z,102156.94
2022-12-20T14:08:04.667Z,102154.66
2022-12-20T14:11:10.149Z,102163.28
2022-12-20T14:14:14.196Z,102155.00
2022-12-20T14:17:18.745Z,102147.84
2022-12-20T14:20:30.442Z,102137.94
2022-12-20T14:23:37.917Z,102136.72
2022-12-20T14:26:48.149Z,102139.84
2022-12-20T14:29:52.163Z,102134.75
2022-12-20T14:32:55.963Z,102122.06
2022-12-20T14:36:08.496Z,102109.44
2022-12-20T14:39:26.257Z,102106.56
2022-12-20T14:42:34.124Z,102104.94
2022-12-20T14:45:37.001Z,102101.44
2022-12-20T14:48:39.858Z,102097.94
2022-12-20T14:51:44.049Z,102096.94
2022-12-20T14:55:08.733Z,102076.47
2022-12-20T14:58:24.751Z,102076.22
2022-12-20T15:01:28.484Z,102079.31
2022-12-20T15:04:33.317Z,102068.72
2022-12-20T15:07:41.741Z,102054.06
2022-12-20T15:10:54.304Z,102055.66
2022-12-20T15:13:59.293Z,102051.09
2022-12-20T15:17:03.882Z,102053.09
2022-12-20T15:20:15.087Z,102043.72
2022-12-20T15:23:21.184Z,102030.69
2022-12-20T15:26:25.602Z,102021.91
2022-12-20T15:29:29.174Z,102027.09
2022-12-20T15:32:32.659Z,102021.66
2022-12-20T15:35:35.517Z,102024.94
2022-12-20T15:39:10.661Z,102011.88
2022-12-20T15:42:04.688Z,102007.69
2022-12-20T15:45:13.046Z,101990.06
2022-12-20T15:48:18.818Z,101991.47
2022-12-20T15:51:30.197Z,102007.66
2022-12-20T15:54:36.965Z,101994.72
2022-12-20T15:57:39.661Z,101996.50
2022-12-20T16:00:42.851Z,102008.84
2022-12-20T16:03:45.635Z,102012.13
2022-12-20T16:06:50.114Z,101996.63
2022-12-20T16:09:54.314Z,102001.19
2022-12-20T16:12:57.055Z,101994.38
2022-12-20T16:16:00.359Z,101986.44
2022-12-20T16:19:03.996Z,101981.41
2022-12-20T16:22:14.315Z,101979.47
2022-12-20T16:25:29.323Z,101977.38
2022-12-20T16:28:32.084Z,101974.78
2022-12-20T16:31:36.489Z,101978.53
2022-12-20T16:34:39.416Z,101981.91
2022-12-20T16:37:42.134Z,101980.75
2022-12-20T16:40:46.257Z,101992.69
2022-12-20T16:43:49.422Z,101997.16
2022-12-20T16:46:52.175Z,101997.56
2022-12-20T16:49:54.989Z,101994.88
2022-12-20T16:52:57.747Z,101999.22
2022-12-20T16:56:01.935Z,101996.69
2022-12-20T16:59:22.550Z,101994.22
2022-12-20T17:02:28.641Z,102008.50
2022-12-20T17:05:33.875Z,102001.09
2022-12-20T17:12:10.302Z,102019.09
2022-12-20T17:15:17.852Z,102010.94
2022-12-20T17:18:20.774Z,102018.72
2022-12-20T17:21:33.347Z,102004.56
2022-12-20T17:24:36.020Z,102005.97
2022-12-20T17:27:39.995Z,102004.44
2022-12-20T17:30:45.617Z,102004.13
2022-12-20T17:33:48.352Z,102006.31
2022-12-20T17:36:52.933Z,102006.50
2022-12-20T17:39:55.948Z,102007.63
2022-12-20T17:43:00.183Z,102004.50
2022-12-20T17:46:02.925Z,102002.50
2022-12-20T17:49:05.571Z,102002.38
2022-12-20T17:52:13.220Z,101998.69
2022-12-20T17:55:21.416Z,102005.59
2022-12-20T17:58:25.569Z,101997.00
2022-12-20T18:01:30.335Z,102000.13
2022-12-20T18:04:38.192Z,101984.44
2022-12-20T18:07:40.947Z,101990.94
2022-12-20T18:10:45.773Z,101990.72
2022-12-20T18:13:51.756Z,101983.41
2022-12-20T18:16:55.611Z,101979.34
2022-12-20T18:19:59.733Z,101977.56
2022-12-20T18:23:03.436Z,101979.34
2022-12-20T18:26:08.227Z,101975.84
2022-12-20T18:29:12.542Z,101972.72
2022-12-20T18:32:15.388Z,101971.03
2022-12-20T18:35:18.217Z,101961.97
2022-12-20T18:38:23.400Z,101958.75
2022-12-20T18:41:28.875Z,101953.69
2022-12-20T18:44:35.743Z,101957.09
2022-12-20T18:47:38.670Z,101959.41
2022-12-20T18:50:43.933Z,101970.44
2022-12-20T18:53:47.858Z,101964.09
2022-12-20T18:56:51.227Z,101951.50
2022-12-20T18:59:55.348Z,101948.75
2022-12-20T19:03:00.050Z,101948.31
2022-12-20T19:06:03.369Z,101945.88
2022-12-20T19:09:08.277Z,101934.50
2022-12-20T19:12:11.478Z,101938.53
2022-12-20T19:15:15.806Z,101935.78
2022-12-20T19:18:18.415Z,101931.38
2022-12-20T19:21:24.101Z,101930.44
2022-12-20T19:24:27.025Z,101936.69
2022-12-20T19:27:30.202Z,101937.81
2022-12-20T19:30:34.368Z,101929.81
2022-12-20T19:33:37.326Z,101933.75
2022-12-20T19:36:41.862Z,101934.06
2022-12-20T19:39:44.766Z,101925.13
2022-12-20T19:42:47.660Z,101921.94
2022-12-20T19:45:51.640Z,101925.09
2022-12-20T19:48:55.300Z,101927.44
2022-12-20T19:51:57.987Z,101917.41
2022-12-20T19:55:01.034Z,101914.44
2022-12-20T19:58:03.799Z,101907.03
2022-12-20T20:01:09.312Z,101910.31
2022-12-20T20:04:12.289Z,101907.38
2022-12-20T20:07:15.509Z,101914.31
2022-12-20T20:10:18.625Z,101904.47
2022-12-20T20:13:41.133Z,101909.72
2022-12-20T20:16:45.190Z,101896.28
2022-12-20T20:19:48.533Z,101889.25
2022-12-20T20:22:51.327Z,101886.91
2022-12-20T20:25:57.235Z,101871.09
2022-12-20T20:29:01.879Z,101871.19
2022-12-20T20:32:07.571Z,101878.84
2022-12-20T20:35:10.988Z,101875.38
2022-12-20T20:38:13.670Z,101870.69
2022-12-20T20:41:17.657Z,101872.28
2022-12-20T20:44:20.324Z,101868.38
2022-12-20T20:47:24.559Z,101855.25
2022-12-20T20:50:31.283Z,101848.88
2022-12-20T20:53:34.714Z,101850.22
2022-12-20T20:56:37.480Z,101843.97
2022-12-20T20:59:40.399Z,101847.72
2022-12-20T21:02:45.420Z,101839.78
2022-12-20T21:06:32.479Z,101847.56
2022-12-20T21:09:12.959Z,101855.78
2022-12-20T21:12:16.976Z,101871.31
2022-12-20T21:15:22.954Z,101876.91
2022-12-20T21:18:27.798Z,101886.06
2022-12-20T21:21:30.437Z,101881.25
2022-12-20T21:24:33.158Z,101883.31
2022-12-20T21:27:35.913Z,101869.69
2022-12-20T21:30:38.538Z,101860.94
2022-12-20T21:33:42.774Z,101861.47
2022-12-20T21:36:45.558Z,101866.69
2022-12-20T21:39:48.472Z,101860.75
2022-12-20T21:42:51.262Z,101861.06
2022-12-20T21:45:53.959Z,101860.56
2022-12-20T21:48:58.751Z,101853.56
2022-12-20T21:52:01.618Z,101838.16
2022-12-20T21:55:04.955Z,101837.34
2022-12-20T21:58:07.636Z,101843.75
2022-12-20T22:01:10.879Z,101841.06
2022-12-20T22:04:15.167Z,101842.94
2022-12-20T22:07:17.943Z,101830.72
2022-12-20T22:10:20.712Z,101814.16
2022-12-20T22:13:23.416Z,101808.47
2022-12-20T22:16:35.112Z,101798.31
2022-12-20T22:19:39.384Z,101810.09
2022-12-20T22:22:42.027Z,101801.28
2022-12-20T22:25:44.750Z,101784.69
2022-12-20T22:28:49.917Z,101783.41
2022-12-20T22:31:52.718Z,101782.06
2022-12-20T22:34:56.967Z,101777.81
2022-12-20T22:38:00.800Z,101770.78
2022-12-20T22:41:07.824Z,101760.94
2022-12-20T22:44:10.506Z,101758.03
2022-12-20T22:47:13.134Z,101752.66
2022-12-20T22:50:17.233Z,101760.13
2022-12-20T22:53:19.860Z,101759.34
2022-12-20T22:56:22.677Z,101762.47
2022-12-20T22:59:25.480Z,101751.25
2022-12-20T23:02:28.331Z,101749.91
2022-12-20T23:05:33.778Z,101734.84
2022-12-20T23:08:37.940Z,101734.78
2022-12-20T23:11:58.956Z,101744.38
2022-12-20T23:15:19.852Z,101739.88
2022-12-20T23:18:22.731Z,101739.63
2022-12-20T23:21:48.274Z,101739.88
2022-12-20T23:24:50.854Z,101715.31
2022-12-20T23:27:53.583Z,101710.47
2022-12-20T23:30:56.532Z,101712.22
2022-12-20T23:33:59.653Z,101715.22
2022-12-20T23:37:03.687Z,101712.97
2022-12-20T23:40:08.412Z,101704.94
2022-12-20T23:43:11.218Z,101704.13
2022-12-20T23:46:18.935Z,101686.19
2022-12-20T23:49:21.617Z,101681.75
2022-12-20T23:52:26.478Z,101671.75
2022-12-20T23:55:29.108Z,101669.34
2022-12-20T23:58:32.422Z,101677.31
